createdAt,value
2018-02-03T00:01:02.286Z,72.49
2018-02-03T00:02:07.989Z,72.50
2018-02-03T00:03:14.640Z,72.50
2018-02-03T00:04:20.332Z,72.45
2018-02-03T00:05:26.040Z,72.45
2018-02-03T00:06:31.783Z,72.32
2018-02-03T00:07:37.490Z,72.25
2018-02-03T00:08:43.977Z,72.17
2018-02-03T00:09:49.700Z,72.21
2018-02-03T00:10:55.397Z,72.20
2018-02-03T00:12:01.117Z,72.23
2018-02-03T00:13:06.819Z,72.32
2018-02-03T00:14:12.629Z,72.29
2018-02-03T00:15:18.399Z,72.31
2018-02-03T00:16:24.084Z,72.39
2018-02-03T00:17:29.806Z,72.47
2018-02-03T00:18:35.520Z,72.49
2018-02-03T00:19:41.992Z,72.50
2018-02-03T00:20:48.448Z,72.51
2018-02-03T00:21:54.923Z,72.56
2018-02-03T00:23:00.659Z,72.54
2018-02-03T00:24:07.124Z,72.63
2018-02-03T00:25:12.831Z,72.61
2018-02-03T00:26:18.535Z,72.58
2018-02-03T00:27:24.216Z,72.58
2018-02-03T00:28:30.712Z,72.63
2018-02-03T00:29:36.441Z,72.61
2018-02-03T00:30:42.148Z,72.66
2018-02-03T00:31:47.852Z,72.57
2018-02-03T00:32:53.557Z,72.56
2018-02-03T00:33:59.307Z,72.56
2018-02-03T00:35:05.017Z,72.62
2018-02-03T00:36:10.715Z,72.66
2018-02-03T00:37:16.448Z,72.73
2018-02-03T00:38:22.135Z,72.78
2018-02-03T00:39:28.641Z,72.80
2018-02-03T00:40:34.334Z,72.86
2018-02-03T00:41:39.921Z,72.95
2018-02-03T00:42:45.623Z,72.89
2018-02-03T00:43:52.097Z,72.90
2018-02-03T00:44:57.840Z,72.91
2018-02-03T00:46:03.532Z,72.82
2018-02-03T00:47:09.275Z,72.84
2018-02-03T00:48:14.990Z,72.88
2018-02-03T00:49:20.702Z,72.93
2018-02-03T00:50:26.428Z,72.95
2018-02-03T00:51:32.896Z,73.04
2018-02-03T00:52:39.501Z,73.03
2018-02-03T00:53:45.217Z,73.13
2018-02-03T00:54:50.935Z,73.18
2018-02-03T00:55:56.667Z,73.21
2018-02-03T00:57:03.153Z,73.27
2018-02-03T00:58:08.863Z,73.28
2018-02-03T00:59:15.448Z,73.35
2018-02-03T01:00:21.172Z,73.38
2018-02-03T01:01:27.663Z,73.25
2018-02-03T01:02:33.373Z,73.36
2018-02-03T01:03:39.839Z,73.41
2018-02-03T01:04:45.551Z,73.34
2018-02-03T01:05:52.339Z,73.24
2018-02-03T01:06:58.072Z,73.25
2018-02-03T01:08:04.552Z,73.22
2018-02-03T01:09:10.256Z,73.03
2018-02-03T01:10:16.745Z,73.11
2018-02-03T01:11:22.457Z,73.10
2018-02-03T01:12:28.964Z,73.10
2018-02-03T01:13:34.681Z,73.14
2018-02-03T01:14:41.155Z,73.07
2018-02-03T01:15:46.851Z,73.06
2018-02-03T01:16:52.544Z,73.06
2018-02-03T01:17:58.264Z,72.95
2018-02-03T01:19:03.968Z,72.83
2018-02-03T01:20:09.677Z,72.63
2018-02-03T01:21:15.521Z,72.51
2018-02-03T01:22:21.042Z,72.35
2018-02-03T01:23:26.770Z,72.17
2018-02-03T01:24:32.469Z,72.07
2018-02-03T01:25:38.181Z,72.01
2018-02-03T01:26:43.904Z,71.79
2018-02-03T01:27:49.607Z,71.62
2018-02-03T01:28:55.320Z,71.26
2018-02-03T01:30:01.012Z,71.02
2018-02-03T01:31:06.702Z,70.78
2018-02-03T01:32:12.156Z,70.64
2018-02-03T01:33:18.612Z,70.66
2018-02-03T01:34:24.081Z,70.68
2018-02-03T01:35:29.775Z,70.64
2018-02-03T01:36:35.688Z,70.39
2018-02-03T01:37:41.371Z,70.26
2018-02-03T01:38:47.051Z,70.38
2018-02-03T01:39:52.763Z,70.55
2018-02-03T01:40:59.227Z,70.58
2018-02-03T01:42:05.681Z,70.45
2018-02-03T01:43:12.162Z,70.12
2018-02-03T01:44:17.843Z,70.08
2018-02-03T01:45:23.560Z,70.11
2018-02-03T01:46:29.247Z,70.24
2018-02-03T01:47:52.714Z,70.22
2018-02-03T01:48:59.187Z,70.42
2018-02-03T01:50:04.871Z,70.47
2018-02-03T01:51:10.606Z,70.57
2018-02-03T01:52:16.290Z,70.78
2018-02-03T01:53:22.743Z,70.87
2018-02-03T01:54:29.203Z,70.98
2018-02-03T01:55:36.086Z,70.96
2018-02-03T01:56:42.555Z,71.04
2018-02-03T01:57:48.311Z,71.04
2018-02-03T01:58:54.004Z,71.11
2018-02-03T02:00:01.211Z,71.16
2018-02-03T02:01:06.904Z,71.20
2018-02-03T02:02:12.619Z,71.20
2018-02-03T02:03:18.315Z,70.99
2018-02-03T02:04:24.773Z,70.85
2018-02-03T02:05:31.237Z,70.81
2018-02-03T02:06:37.695Z,70.82
2018-02-03T02:07:44.173Z,70.90
2018-02-03T02:08:49.878Z,70.85
2018-02-03T02:09:56.360Z,70.80
2018-02-03T02:11:02.872Z,70.55
2018-02-03T02:12:08.679Z,70.58
2018-02-03T02:13:14.426Z,70.58
2018-02-03T02:14:20.123Z,70.61
2018-02-03T02:15:26.579Z,70.79
2018-02-03T02:16:33.081Z,71.02
2018-02-03T02:17:38.772Z,71.20
2018-02-03T02:18:44.502Z,71.46
2018-02-03T02:19:50.191Z,71.70
2018-02-03T02:20:55.884Z,71.82
2018-02-03T02:22:01.588Z,71.89
2018-02-03T02:23:07.266Z,71.96
2018-02-03T02:24:12.655Z,71.97
2018-02-03T02:25:18.364Z,71.81
2018-02-03T02:26:24.815Z,71.91
2018-02-03T02:27:31.307Z,71.90
2018-02-03T02:28:37.015Z,71.94
2018-02-03T02:29:46.041Z,71.98
2018-02-03T02:30:52.224Z,71.91
2018-02-03T02:31:57.931Z,71.93
2018-02-03T02:33:04.383Z,72.19
2018-02-03T02:34:10.858Z,72.34
2018-02-03T02:35:17.336Z,72.24
2018-02-03T02:36:23.062Z,72.14
2018-02-03T02:37:28.960Z,72.23
2018-02-03T02:38:34.916Z,72.28
2018-02-03T02:39:40.607Z,72.64
2018-02-03T02:40:45.759Z,72.78
2018-02-03T02:41:51.472Z,72.99
2018-02-03T02:42:57.163Z,73.16
2018-02-03T02:44:03.693Z,73.29
2018-02-03T02:45:09.399Z,73.34
2018-02-03T02:46:15.119Z,73.40
2018-02-03T02:47:21.573Z,73.42
2018-02-03T02:48:27.296Z,73.55
2018-02-03T02:49:33.197Z,73.43
2018-02-03T02:50:38.714Z,73.23
2018-02-03T02:51:44.246Z,73.40
2018-02-03T02:52:49.935Z,73.25
2018-02-03T02:53:55.624Z,73.17
2018-02-03T02:55:01.332Z,73.03
2018-02-03T02:56:07.026Z,72.91
2018-02-03T02:57:12.748Z,72.79
2018-02-03T02:58:18.328Z,72.66
2018-02-03T02:59:24.026Z,72.46
2018-02-03T03:00:30.482Z,72.23
2018-02-03T03:01:36.932Z,72.00
2018-02-03T03:02:43.643Z,71.84
2018-02-03T03:03:49.331Z,71.69
2018-02-03T03:04:55.782Z,71.60
2018-02-03T03:06:01.473Z,71.59
2018-02-03T03:07:07.163Z,71.57
2018-02-03T03:08:13.474Z,71.52
2018-02-03T03:09:19.167Z,71.44
2018-02-03T03:10:25.621Z,71.38
2018-02-03T03:11:32.089Z,71.37
2018-02-03T03:12:37.781Z,71.37
2018-02-03T03:13:43.487Z,71.35
2018-02-03T03:14:49.181Z,71.36
2018-02-03T03:15:54.867Z,71.44
2018-02-03T03:17:00.560Z,71.52
2018-02-03T03:18:07.013Z,71.53
2018-02-03T03:19:12.723Z,71.57
2018-02-03T03:20:18.506Z,71.67
2018-02-03T03:21:24.198Z,71.72
2018-02-03T03:22:29.879Z,71.80
2018-02-03T03:23:35.564Z,71.76
2018-02-03T03:24:41.282Z,71.84
2018-02-03T03:25:47.732Z,71.79
2018-02-03T03:26:54.208Z,71.73
2018-02-03T03:27:59.904Z,71.68
2018-02-03T03:29:05.254Z,71.72
2018-02-03T03:30:10.977Z,71.61
2018-02-03T03:31:16.881Z,71.55
2018-02-03T03:32:22.580Z,71.44
2018-02-03T03:33:27.710Z,71.38
2018-02-03T03:34:34.163Z,71.33
2018-02-03T03:35:39.878Z,71.37
2018-02-03T03:36:45.980Z,71.36
2018-02-03T03:37:52.441Z,71.25
2018-02-03T03:38:58.887Z,71.14
2018-02-03T03:40:05.349Z,71.11
2018-02-03T03:41:11.977Z,70.87
2018-02-03T03:42:17.668Z,70.74
2018-02-03T03:43:23.357Z,70.71
2018-02-03T03:44:29.340Z,70.62
2018-02-03T03:45:35.785Z,70.50
2018-02-03T03:46:41.603Z,70.31
2018-02-03T03:47:47.297Z,70.25
2018-02-03T03:48:52.993Z,70.20
2018-02-03T03:49:58.690Z,70.15
2018-02-03T03:51:04.379Z,70.04
2018-02-03T03:52:11.082Z,69.95
2018-02-03T03:53:16.764Z,69.77
2018-02-03T03:54:22.460Z,69.71
2018-02-03T03:55:27.963Z,69.56
2018-02-03T03:56:34.424Z,69.48
2018-02-03T03:57:40.145Z,69.39
2018-02-03T03:58:46.603Z,69.40
2018-02-03T03:59:52.310Z,69.49
2018-02-03T04:00:57.998Z,69.49
2018-02-03T04:02:03.680Z,69.48
2018-02-03T04:03:09.407Z,69.59
2018-02-03T04:04:15.141Z,69.61
2018-02-03T04:05:21.039Z,69.56
2018-02-03T04:06:26.723Z,69.39
2018-02-03T04:07:32.227Z,69.33
2018-02-03T04:08:37.772Z,69.13
2018-02-03T04:09:44.279Z,68.90
2018-02-03T04:10:49.971Z,68.79
2018-02-03T04:11:56.432Z,68.59
2018-02-03T04:13:02.561Z,68.41
2018-02-03T04:14:09.783Z,68.28
2018-02-03T04:15:15.470Z,68.15
2018-02-03T04:16:21.173Z,68.03
2018-02-03T04:17:26.862Z,67.87
2018-02-03T04:18:32.350Z,67.78
2018-02-03T04:19:38.840Z,67.63
2018-02-03T04:20:44.527Z,67.43
2018-02-03T04:21:50.993Z,67.47
2018-02-03T04:22:56.731Z,67.41
2018-02-03T04:24:03.187Z,67.23
2018-02-03T04:25:08.904Z,67.24
2018-02-03T04:26:14.589Z,66.97
2018-02-03T04:27:20.287Z,67.06
2018-02-03T04:28:26.747Z,67.05
2018-02-03T04:29:33.207Z,66.97
2018-02-03T04:30:38.739Z,66.92
2018-02-03T04:31:44.878Z,66.86
2018-02-03T04:32:51.332Z,66.72
2018-02-03T04:33:57.008Z,66.62
2018-02-03T04:35:02.712Z,66.60
2018-02-03T04:36:08.491Z,66.60
2018-02-03T04:37:14.527Z,66.69
2018-02-03T04:38:20.992Z,66.72
2018-02-03T04:39:27.447Z,66.70
2018-02-03T04:40:33.900Z,66.56
2018-02-03T04:41:40.375Z,66.46
2018-02-03T04:42:45.874Z,66.38
2018-02-03T04:43:51.576Z,66.42
2018-02-03T04:44:57.257Z,66.50
2018-02-03T04:46:02.944Z,66.53
2018-02-03T04:47:08.661Z,66.53
2018-02-03T04:48:15.125Z,66.55
2018-02-03T04:49:20.826Z,66.54
2018-02-03T04:50:26.523Z,66.58
2018-02-03T04:51:32.454Z,66.77
2018-02-03T04:52:38.927Z,66.83
2018-02-03T04:53:44.627Z,66.80
2018-02-03T04:54:51.080Z,66.59
2018-02-03T04:55:57.535Z,66.39
2018-02-03T04:57:03.240Z,66.22
2018-02-03T04:58:08.955Z,66.26
2018-02-03T04:59:14.654Z,66.35
2018-02-03T05:00:20.631Z,66.55
2018-02-03T05:01:26.337Z,66.60
2018-02-03T05:02:32.013Z,66.54
2018-02-03T05:03:38.483Z,66.53
2018-02-03T05:04:44.412Z,66.56
2018-02-03T05:05:49.982Z,66.53
2018-02-03T05:06:55.687Z,66.54
2018-02-03T05:08:02.867Z,66.59
2018-02-03T05:09:09.348Z,66.56
2018-02-03T05:10:15.039Z,66.52
2018-02-03T05:11:21.494Z,66.61
2018-02-03T05:12:27.188Z,66.57
2018-02-03T05:13:32.881Z,66.56
2018-02-03T05:14:39.576Z,66.50
2018-02-03T05:15:45.263Z,66.30
2018-02-03T05:16:50.959Z,66.21
2018-02-03T05:17:56.414Z,66.06
2018-02-03T05:19:02.120Z,66.06
2018-02-03T05:20:08.606Z,66.12
2018-02-03T05:21:13.386Z,66.18
2018-02-03T05:22:19.848Z,66.26
2018-02-03T05:23:26.358Z,66.34
2018-02-03T05:24:31.708Z,66.41
2018-02-03T05:25:37.419Z,66.52
2018-02-03T05:26:43.109Z,66.57
2018-02-03T05:27:49.559Z,66.54
2018-02-03T05:28:55.251Z,66.52
2018-02-03T05:30:00.603Z,66.53
2018-02-03T05:31:06.315Z,66.47
2018-02-03T05:32:11.990Z,66.40
2018-02-03T05:33:17.361Z,66.45
2018-02-03T05:34:23.621Z,66.50
2018-02-03T05:35:29.862Z,66.52
2018-02-03T05:36:36.350Z,66.53
2018-02-03T05:37:41.869Z,66.58
2018-02-03T05:38:48.136Z,66.62
2018-02-03T05:39:53.642Z,66.54
2018-02-03T05:40:59.564Z,66.57
2018-02-03T05:42:05.279Z,66.58
2018-02-03T05:43:10.773Z,66.51
2018-02-03T05:44:17.040Z,66.48
2018-02-03T05:45:22.551Z,66.44
2018-02-03T05:46:28.843Z,66.48
2018-02-03T05:47:34.789Z,66.58
2018-02-03T05:48:40.301Z,66.55
2018-02-03T05:49:46.562Z,66.66
2018-02-03T05:50:53.018Z,66.74
2018-02-03T05:51:59.464Z,66.79
2018-02-03T05:53:05.755Z,66.88
2018-02-03T05:54:11.432Z,67.04
2018-02-03T05:55:17.124Z,67.05
2018-02-03T05:56:22.643Z,67.04
2018-02-03T05:57:29.304Z,66.98
2018-02-03T05:58:35.785Z,66.94
2018-02-03T05:59:41.669Z,66.81
2018-02-03T06:00:47.162Z,66.80
2018-02-03T06:01:52.863Z,66.69
2018-02-03T06:02:59.304Z,66.69
2018-02-03T06:04:04.805Z,66.61
2018-02-03T06:05:10.502Z,66.55
2018-02-03T06:06:17.004Z,66.56
2018-02-03T06:07:22.696Z,66.54
2018-02-03T06:08:28.383Z,66.56
2018-02-03T06:09:34.095Z,66.61
2018-02-03T06:10:40.555Z,66.64
2018-02-03T06:11:47.024Z,66.58
2018-02-03T06:12:52.789Z,66.74
2018-02-03T06:13:58.475Z,66.93
2018-02-03T06:15:04.185Z,66.98
2018-02-03T06:16:09.896Z,67.01
2018-02-03T06:17:15.597Z,67.10
2018-02-03T06:18:20.951Z,67.22
2018-02-03T06:19:26.676Z,67.30
2018-02-03T06:20:33.159Z,67.34
2018-02-03T06:21:38.548Z,67.35
2018-02-03T06:22:44.230Z,67.29
2018-02-03T06:23:49.932Z,67.19
2018-02-03T06:24:56.374Z,67.25
2018-02-03T06:26:02.095Z,67.29
2018-02-03T06:27:08.109Z,67.25
2018-02-03T06:28:14.553Z,67.25
2018-02-03T06:29:21.044Z,67.44
2018-02-03T06:30:26.735Z,67.53
2018-02-03T06:31:31.795Z,67.45
2018-02-03T06:32:37.483Z,67.43
2018-02-03T06:33:43.176Z,67.45
2018-02-03T06:34:48.871Z,67.37
2018-02-03T06:35:55.347Z,67.26
2018-02-03T06:37:01.839Z,67.24
2018-02-03T06:38:07.540Z,67.31
2018-02-03T06:39:13.037Z,67.32
2018-02-03T06:40:18.726Z,67.37
2018-02-03T06:41:25.300Z,67.40
2018-02-03T06:42:31.788Z,67.35
2018-02-03T06:43:37.474Z,67.33
2018-02-03T06:44:43.176Z,67.39
2018-02-03T06:45:48.876Z,67.37
2018-02-03T06:46:54.576Z,67.43
2018-02-03T06:48:00.312Z,67.35
2018-02-03T06:49:06.007Z,67.41
2018-02-03T06:50:11.738Z,67.56
2018-02-03T06:51:18.190Z,67.85
2018-02-03T06:52:24.712Z,68.14
2018-02-03T06:53:30.446Z,68.30
2018-02-03T06:54:36.157Z,68.19
2018-02-03T06:55:41.854Z,68.25
2018-02-03T06:56:47.547Z,68.21
2018-02-03T06:57:53.251Z,68.23
2018-02-03T06:58:58.984Z,68.20
2018-02-03T07:00:04.580Z,68.32
2018-02-03T07:01:10.280Z,68.44
2018-02-03T07:02:15.984Z,68.52
2018-02-03T07:03:23.192Z,68.40
2018-02-03T07:04:29.682Z,68.36
2018-02-03T07:05:35.391Z,68.35
2018-02-03T07:06:41.088Z,68.25
2018-02-03T07:07:46.787Z,68.11
2018-02-03T07:08:51.805Z,68.07
2018-02-03T07:09:57.340Z,68.07
2018-02-03T07:11:03.031Z,68.06
2018-02-03T07:12:08.817Z,68.12
2018-02-03T07:13:15.272Z,68.18
2018-02-03T07:14:20.981Z,68.27
2018-02-03T07:15:27.816Z,68.37
2018-02-03T07:16:33.499Z,68.50
2018-02-03T07:17:39.793Z,68.47
2018-02-03T07:18:45.480Z,68.40
2018-02-03T07:19:51.964Z,68.31
2018-02-03T07:20:58.441Z,68.37
2018-02-03T07:22:04.146Z,68.40
2018-02-03T07:23:10.608Z,68.39
2018-02-03T07:24:16.903Z,68.28
2018-02-03T07:25:22.441Z,68.27
2018-02-03T07:26:28.161Z,68.19
2018-02-03T07:27:33.856Z,68.23
2018-02-03T07:28:39.046Z,68.30
2018-02-03T07:29:44.557Z,68.26
2018-02-03T07:30:50.413Z,68.35
2018-02-03T07:31:55.954Z,68.26
2018-02-03T07:34:00.859Z,68.27
2018-02-03T07:35:06.987Z,68.28
2018-02-03T07:36:13.473Z,68.29
2018-02-03T07:37:19.964Z,68.33
2018-02-03T07:38:25.688Z,68.39
2018-02-03T07:39:31.607Z,68.44
2018-02-03T07:40:38.292Z,68.38
2018-02-03T07:41:44.039Z,68.37
2018-02-03T07:42:49.780Z,68.30
2018-02-03T07:43:55.514Z,68.37
2018-02-03T07:45:01.204Z,68.41
2018-02-03T07:46:06.904Z,68.45
2018-02-03T07:47:12.615Z,68.48
2018-02-03T07:48:19.112Z,68.46
2018-02-03T07:49:24.821Z,68.46
2018-02-03T07:50:30.526Z,68.29
2018-02-03T07:51:36.229Z,68.29
2018-02-03T07:52:41.923Z,68.23
2018-02-03T07:53:47.721Z,68.32
2018-02-03T07:54:53.429Z,68.34
2018-02-03T07:55:59.132Z,68.22
2018-02-03T07:57:04.850Z,68.15
2018-02-03T07:58:10.574Z,68.23
2018-02-03T07:59:16.301Z,68.13
2018-02-03T08:00:21.810Z,67.96
2018-02-03T08:01:28.279Z,67.86
2018-02-03T08:02:34.749Z,67.86
2018-02-03T08:03:40.103Z,67.79
2018-02-03T08:04:45.833Z,67.84
2018-02-03T08:05:51.562Z,67.94
2018-02-03T08:06:58.013Z,67.90
2018-02-03T08:08:04.505Z,67.76
2018-02-03T08:09:10.223Z,67.75
2018-02-03T08:10:15.412Z,67.78
2018-02-03T08:11:21.143Z,67.69
2018-02-03T08:12:26.839Z,67.57
2018-02-03T08:13:32.541Z,67.40
2018-02-03T08:14:39.001Z,67.20
2018-02-03T08:15:44.723Z,67.06
2018-02-03T08:16:50.412Z,67.01
2018-02-03T08:17:56.123Z,67.06
2018-02-03T08:19:01.828Z,67.10
2018-02-03T08:20:09.103Z,67.17
2018-02-03T08:21:14.864Z,67.25
2018-02-03T08:22:20.549Z,67.15
2018-02-03T08:23:26.279Z,67.10
2018-02-03T08:24:32.148Z,67.04
2018-02-03T08:25:37.852Z,67.03
2018-02-03T08:26:44.361Z,67.00
2018-02-03T08:27:50.049Z,66.93
2018-02-03T08:28:56.276Z,66.87
2018-02-03T08:30:02.056Z,66.71
2018-02-03T08:31:07.633Z,66.59
2018-02-03T08:32:13.350Z,66.57
2018-02-03T08:33:18.190Z,66.49
2018-02-03T08:34:23.881Z,66.36
2018-02-03T08:35:30.351Z,66.36
2018-02-03T08:36:36.485Z,66.43
2018-02-03T08:37:42.231Z,66.38
2018-02-03T08:38:48.116Z,66.42
2018-02-03T08:39:54.044Z,66.43
2018-02-03T08:41:00.366Z,66.38
2018-02-03T08:42:06.412Z,66.39
2018-02-03T08:43:13.396Z,66.46
2018-02-03T08:44:20.101Z,66.41
2018-02-03T08:45:26.841Z,66.46
2018-02-03T08:46:32.978Z,66.54
2018-02-03T08:47:39.846Z,66.55
2018-02-03T08:48:46.823Z,66.54
2018-02-03T08:49:53.592Z,66.61
2018-02-03T08:51:00.256Z,66.56
2018-02-03T08:52:06.727Z,66.53
2018-02-03T08:53:12.421Z,66.55
2018-02-03T08:54:19.115Z,66.46
2018-02-03T08:55:25.938Z,66.54
2018-02-03T08:56:33.485Z,66.46
2018-02-03T08:57:39.326Z,66.43
2018-02-03T08:58:45.213Z,66.29
2018-02-03T08:59:52.369Z,66.08
2018-02-03T09:00:57.720Z,65.88
2018-02-03T09:02:07.682Z,65.62
2018-02-03T09:03:14.491Z,65.65
2018-02-03T09:04:21.382Z,65.67
2018-02-03T09:05:28.431Z,65.59
2018-02-03T09:06:34.479Z,65.44
2018-02-03T09:07:40.361Z,65.39
2018-02-03T09:08:46.370Z,65.34
2018-02-03T09:09:52.472Z,65.28
2018-02-03T09:10:58.418Z,65.21
2018-02-03T09:12:06.861Z,65.25
2018-02-03T09:13:14.584Z,65.36
2018-02-03T09:14:21.382Z,65.31
2018-02-03T09:15:27.357Z,65.32
2018-02-03T09:16:33.393Z,65.32
2018-02-03T09:17:40.911Z,65.36
2018-02-03T09:18:47.993Z,65.33
2018-02-03T09:19:53.783Z,65.31
2018-02-03T09:20:59.714Z,65.43
2018-02-03T09:22:07.284Z,65.42
2018-02-03T09:23:13.392Z,65.41
2018-02-03T09:24:19.455Z,65.27
2018-02-03T09:25:25.708Z,65.13
2018-02-03T09:26:32.706Z,65.10
2018-02-03T09:27:39.780Z,65.12
2018-02-03T09:28:46.063Z,64.97
2018-02-03T09:29:52.633Z,64.79
2018-02-03T09:30:59.516Z,64.65
2018-02-03T09:32:05.572Z,64.68
2018-02-03T09:33:11.845Z,64.77
2018-02-03T09:34:18.058Z,64.75
2018-02-03T09:35:24.268Z,64.74
2018-02-03T09:36:30.647Z,64.65
2018-02-03T09:37:39.877Z,64.47
2018-02-03T09:38:47.980Z,64.39
2018-02-03T09:39:56.843Z,64.31
2018-02-03T09:41:02.935Z,64.19
2018-02-03T09:42:09.114Z,64.05
2018-02-03T09:43:15.301Z,63.88
2018-02-03T09:44:21.096Z,63.77
2018-02-03T09:45:27.030Z,63.75
2018-02-03T09:46:33.587Z,63.72
2018-02-03T09:47:40.881Z,63.68
2018-02-03T09:48:48.722Z,63.62
2018-02-03T09:49:54.966Z,63.52
2018-02-03T09:51:01.737Z,63.51
2018-02-03T09:52:07.879Z,63.58
2018-02-03T09:53:13.826Z,63.79
2018-02-03T09:54:19.813Z,63.92
2018-02-03T09:55:28.281Z,63.96
2018-02-03T09:56:34.460Z,63.97
2018-02-03T09:57:40.380Z,63.87
2018-02-03T09:58:46.728Z,63.76
2018-02-03T09:59:54.344Z,63.73
2018-02-03T10:01:00.332Z,63.65
2018-02-03T10:02:06.255Z,63.49
2018-02-03T10:03:12.171Z,63.26
2018-02-03T10:04:18.168Z,63.19
2018-02-03T10:05:24.383Z,62.98
2018-02-03T10:06:31.446Z,62.83
2018-02-03T10:07:39.598Z,62.78
2018-02-03T10:08:46.573Z,62.52
2018-02-03T10:09:53.479Z,62.28
2018-02-03T10:11:02.074Z,62.02
2018-02-03T10:12:08.422Z,61.85
2018-02-03T10:13:15.603Z,61.69
2018-02-03T10:14:21.357Z,61.66
2018-02-03T10:15:27.669Z,61.38
2018-02-03T10:16:35.637Z,61.03
2018-02-03T10:17:43.019Z,60.80
2018-02-03T10:18:49.240Z,60.54
2018-02-03T10:19:55.100Z,60.32
2018-02-03T10:21:00.821Z,60.23
2018-02-03T10:22:06.869Z,59.59
2018-02-03T10:23:13.542Z,59.41
2018-02-03T10:24:21.550Z,59.34
2018-02-03T10:25:27.392Z,59.04
2018-02-03T10:26:33.489Z,58.58
2018-02-03T10:27:40.125Z,58.43
2018-02-03T10:28:46.646Z,58.43
2018-02-03T10:29:52.632Z,58.48
2018-02-03T10:30:59.269Z,58.64
2018-02-03T10:32:05.263Z,58.69
2018-02-03T10:33:12.220Z,58.73
2018-02-03T10:34:19.045Z,58.52
2018-02-03T10:35:24.988Z,58.16
2018-02-03T10:36:31.139Z,57.85
2018-02-03T10:37:40.109Z,57.61
2018-02-03T10:38:46.866Z,57.53
2018-02-03T10:39:52.961Z,57.54
2018-02-03T10:40:59.179Z,57.61
2018-02-03T10:42:05.643Z,57.59
2018-02-03T10:43:13.063Z,57.61
2018-02-03T10:44:19.025Z,57.68
2018-02-03T10:45:26.791Z,57.76
2018-02-03T10:46:33.860Z,57.89
2018-02-03T10:47:41.188Z,57.80
2018-02-03T10:48:48.457Z,57.84
2018-02-03T10:49:54.876Z,57.79
2018-02-03T10:51:01.493Z,57.95
2018-02-03T10:52:08.471Z,58.10
2018-02-03T10:53:14.596Z,58.26
2018-02-03T10:54:20.900Z,58.26
2018-02-03T10:55:27.340Z,58.36
2018-02-03T10:56:33.742Z,58.51
2018-02-03T10:57:40.027Z,58.65
2018-02-03T10:58:47.809Z,58.66
2018-02-03T10:59:54.809Z,58.70
2018-02-03T11:01:06.334Z,58.49
2018-02-03T11:02:12.689Z,58.52
2018-02-03T11:03:19.997Z,58.51
2018-02-03T11:04:27.530Z,58.61
2018-02-03T11:05:34.214Z,58.63
2018-02-03T11:06:41.293Z,58.60
2018-02-03T11:07:47.866Z,58.56
2018-02-03T11:08:53.980Z,58.56
2018-02-03T11:10:00.277Z,58.59
2018-02-03T11:11:06.449Z,58.68
2018-02-03T11:12:12.778Z,58.77
2018-02-03T11:13:18.970Z,58.94
2018-02-03T11:14:24.820Z,58.89
2018-02-03T11:15:31.839Z,58.85
2018-02-03T11:16:37.813Z,58.84
2018-02-03T11:17:43.959Z,58.84
2018-02-03T11:18:49.606Z,58.62
2018-02-03T11:19:55.479Z,58.55
2018-02-03T11:21:03.709Z,58.71
2018-02-03T11:22:09.852Z,58.61
2018-02-03T11:23:15.666Z,58.48
2018-02-03T11:24:21.830Z,58.41
2018-02-03T11:25:27.850Z,58.36
2018-02-03T11:26:34.674Z,58.17
2018-02-03T11:27:42.637Z,57.92
2018-02-03T11:28:51.704Z,57.75
2018-02-03T11:29:58.086Z,57.62
2018-02-03T11:31:04.729Z,57.66
2018-02-03T11:32:10.623Z,57.84
2018-02-03T11:33:18.945Z,58.03
2018-02-03T11:34:24.464Z,58.15
2018-02-03T11:35:31.036Z,58.28
2018-02-03T11:36:37.538Z,58.55
2018-02-03T11:37:43.290Z,58.77
2018-02-03T11:38:48.781Z,59.04
2018-02-03T11:39:54.478Z,59.21
2018-02-03T11:41:02.393Z,59.32
2018-02-03T11:42:09.655Z,59.53
2018-02-03T11:43:15.926Z,59.57
2018-02-03T11:44:21.789Z,59.60
2018-02-03T11:45:27.973Z,59.71
2018-02-03T11:46:35.002Z,59.88
2018-02-03T11:47:40.905Z,59.93
2018-02-03T11:48:47.783Z,59.93
2018-02-03T11:49:56.248Z,60.22
2018-02-03T11:51:02.508Z,60.50
2018-02-03T11:52:07.628Z,60.63
2018-02-03T11:53:13.493Z,60.78
2018-02-03T11:54:19.597Z,60.84
2018-02-03T11:55:25.473Z,61.17
2018-02-03T11:56:31.458Z,61.30
2018-02-03T11:57:38.202Z,61.37
2018-02-03T11:58:44.620Z,61.58
2018-02-03T11:59:50.656Z,61.79
2018-02-03T12:00:56.695Z,62.01
2018-02-03T12:02:02.622Z,62.11
2018-02-03T12:03:08.663Z,61.95
2018-02-03T12:04:16.205Z,61.79
2018-02-03T12:05:22.100Z,61.79
2018-02-03T12:06:30.328Z,61.85
2018-02-03T12:07:36.475Z,62.04
2018-02-03T12:08:42.828Z,62.34
2018-02-03T12:09:49.400Z,62.55
2018-02-03T12:10:55.288Z,62.70
2018-02-03T12:12:01.190Z,62.98
2018-02-03T12:13:07.189Z,63.20
2018-02-03T12:14:13.773Z,63.33
2018-02-03T12:15:21.510Z,63.43
2018-02-03T12:16:27.168Z,63.64
2018-02-03T12:17:33.093Z,63.74
2018-02-03T12:18:39.566Z,63.93
2018-02-03T12:19:47.128Z,64.27
2018-02-03T12:20:53.889Z,64.59
2018-02-03T12:22:00.404Z,64.92
2018-02-03T12:23:06.577Z,65.21
2018-02-03T12:24:13.306Z,65.74
2018-02-03T12:25:19.352Z,65.95
2018-02-03T12:26:26.159Z,66.11
2018-02-03T12:27:33.431Z,66.41
2018-02-03T12:28:40.291Z,66.82
2018-02-03T12:29:46.063Z,66.96
2018-02-03T12:30:52.089Z,67.17
2018-02-03T12:31:57.963Z,67.24
2018-02-03T12:33:03.950Z,67.04
2018-02-03T12:34:10.760Z,67.01
2018-02-03T12:35:17.570Z,66.82
2018-02-03T12:36:23.810Z,66.84
2018-02-03T12:37:30.763Z,66.93
2018-02-03T12:38:36.883Z,66.98
2018-02-03T12:39:42.900Z,66.99
2018-02-03T12:40:49.846Z,66.82
2018-02-03T12:41:55.803Z,66.39
2018-02-03T12:43:02.588Z,66.29
2018-02-03T12:44:10.200Z,65.99
2018-02-03T12:45:17.782Z,65.81
2018-02-03T12:46:24.075Z,65.82
2018-02-03T12:47:30.147Z,65.87
2018-02-03T12:48:37.054Z,65.58
2018-02-03T12:49:43.625Z,65.38
2018-02-03T12:50:50.249Z,65.25
2018-02-03T12:51:56.500Z,65.00
2018-02-03T12:53:03.062Z,64.89
2018-02-03T12:54:09.209Z,64.93
2018-02-03T12:55:16.079Z,64.89
2018-02-03T12:56:21.980Z,64.97
2018-02-03T12:57:28.862Z,64.80
2018-02-03T12:58:36.578Z,64.70
2018-02-03T12:59:44.630Z,64.72
2018-02-03T13:00:51.543Z,64.54
2018-02-03T13:01:57.440Z,64.55
2018-02-03T13:03:03.437Z,64.50
2018-02-03T13:04:10.213Z,64.30
2018-02-03T13:05:17.433Z,64.17
2018-02-03T13:06:24.357Z,63.93
2018-02-03T13:07:30.946Z,63.92
2018-02-03T13:08:36.969Z,64.08
2018-02-03T13:09:43.463Z,64.07
2018-02-03T13:10:49.811Z,63.97
2018-02-03T13:11:57.101Z,63.73
2018-02-03T13:13:02.980Z,63.60
2018-02-03T13:14:09.625Z,63.52
2018-02-03T13:15:25.216Z,63.65
2018-02-03T13:16:43.475Z,63.51
2018-02-03T13:18:00.131Z,63.30
2018-02-03T13:19:21.028Z,63.18
2018-02-03T13:20:39.641Z,63.06
2018-02-03T13:21:57.780Z,62.60
2018-02-03T13:23:28.471Z,62.50
2018-02-03T13:24:39.589Z,62.32
2018-02-03T13:25:46.349Z,62.16
2018-02-03T13:26:54.018Z,61.71
2018-02-03T13:28:00.056Z,61.88
2018-02-03T13:29:06.621Z,62.02
2018-02-03T13:30:13.480Z,62.23
2018-02-03T13:31:19.514Z,62.42
2018-02-03T13:32:26.308Z,62.62
2018-02-03T13:33:32.352Z,62.88
2018-02-03T13:34:37.917Z,62.88
2018-02-03T13:35:43.962Z,62.68
2018-02-03T13:36:50.982Z,62.43
2018-02-03T13:37:56.957Z,62.17
2018-02-03T13:39:05.930Z,62.09
2018-02-03T13:40:14.123Z,62.09
2018-02-03T13:41:20.452Z,62.06
2018-02-03T13:42:26.807Z,62.30
2018-02-03T13:43:32.971Z,62.51
2018-02-03T13:44:39.135Z,62.64
2018-02-03T13:45:45.163Z,62.81
2018-02-03T13:46:51.390Z,63.06
2018-02-03T13:47:58.376Z,63.21
2018-02-03T13:49:04.714Z,63.20
2018-02-03T13:50:10.951Z,63.23
2018-02-03T13:51:17.010Z,63.41
2018-02-03T13:52:23.759Z,63.79
2018-02-03T13:53:30.247Z,63.94
2018-02-03T13:54:36.282Z,64.05
2018-02-03T13:55:43.364Z,64.06
2018-02-03T13:56:49.198Z,64.46
2018-02-03T13:57:55.214Z,64.58
2018-02-03T13:59:01.982Z,64.72
2018-02-03T14:00:10.277Z,64.75
2018-02-03T14:01:17.689Z,64.60
2018-02-03T14:02:23.701Z,64.74
2018-02-03T14:03:31.421Z,64.79
2018-02-03T14:04:38.602Z,64.80
2018-02-03T14:05:45.431Z,64.77
2018-02-03T14:06:52.235Z,64.74
2018-02-03T14:08:00.732Z,64.90
2018-02-03T14:09:06.305Z,64.72
2018-02-03T14:10:12.274Z,64.69
2018-02-03T14:11:18.324Z,64.75
2018-02-03T14:12:24.365Z,64.86
2018-02-03T14:13:30.412Z,64.96
2018-02-03T14:14:36.310Z,64.87
2018-02-03T14:15:42.359Z,64.73